createdAt,value
2017-02-22T00:06:15.851Z,0
2017-02-22T00:16:16.045Z,0
2017-02-22T00:26:15.875Z,0
2017-02-22T00:36:15.831Z,0
2017-02-22T00:46:15.821Z,0
2017-02-22T00:56:15.893Z,0
2017-02-22T01:06:15.814Z,0
2017-02-22T01:16:15.783Z,0
2017-02-22T01:26:15.821Z,0
2017-02-22T01:36:15.823Z,0
2017-02-22T01:46:15.958Z,0
2017-02-22T01:56:15.843Z,0
2017-02-22T02:06:15.865Z,0
2017-02-22T02:16:15.789Z,0
2017-02-22T02:26:16.128Z,0
2017-02-22T02:36:15.821Z,0
2017-02-22T02:46:15.794Z,0
2017-02-22T02:56:15.859Z,0
2017-02-22T03:06:15.837Z,0
2017-02-22T03:16:15.766Z,0
2017-02-22T03:26:15.827Z,0
2017-02-22T03:36:15.815Z,0
2017-02-22T03:46:15.885Z,0
2017-02-22T03:56:15.810Z,0
2017-02-22T04:06:15.770Z,0
2017-02-22T04:16:15.856Z,0
2017-02-22T04:26:15.867Z,0
2017-02-22T04:36:15.830Z,0
2017-02-22T04:46:15.865Z,0
2017-02-22T04:56:15.786Z,0
2017-02-22T05:06:15.892Z,0
2017-02-22T05:16:15.824Z,0
2017-02-22T05:26:15.759Z,0
2017-02-22T05:36:15.860Z,0
2017-02-22T05:46:15.792Z,0
2017-02-22T05:56:15.731Z,0
2017-02-22T06:06:15.763Z,0
2017-02-22T06:16:15.722Z,0
2017-02-22T06:26:15.737Z,0
2017-02-22T06:36:15.737Z,0
2017-02-22T06:46:15.737Z,5
2017-02-22T06:56:15.735Z,10
2017-02-22T07:06:15.754Z,10
2017-02-22T07:16:15.730Z,20
2017-02-22T07:26:15.746Z,20
2017-02-22T07:36:15.749Z,30
2017-02-22T07:46:15.764Z,40
2017-02-22T07:56:15.712Z,60
2017-02-22T08:06:15.734Z,30
2017-02-22T08:16:15.744Z,55
2017-02-22T08:26:15.780Z,55
2017-02-22T08:36:15.728Z,50
2017-02-22T08:46:15.704Z,65
2017-02-22T08:56:15.718Z,65
2017-02-22T09:06:15.717Z,70
2017-02-22T09:16:15.766Z,80
2017-02-22T09:26:15.708Z,105
2017-02-22T09:36:15.757Z,90
2017-02-22T09:46:15.739Z,85
2017-02-22T09:56:15.720Z,60
2017-02-22T10:06:15.719Z,65
2017-02-22T10:16:15.769Z,115
2017-02-22T10:26:15.710Z,75
2017-02-22T10:36:15.741Z,75
2017-02-22T10:46:15.719Z,105
2017-02-22T10:56:15.769Z,90
2017-02-22T11:06:15.731Z,50
2017-02-22T11:16:15.759Z,115
2017-02-22T11:26:15.752Z,75
2017-02-22T11:36:15.714Z,95
2017-02-22T11:46:15.719Z,80
2017-02-22T11:56:15.787Z,70
2017-02-22T12:06:15.710Z,105
2017-02-22T12:16:15.694Z,115
2017-02-22T12:26:15.727Z,115
2017-02-22T12:36:15.758Z,195
2017-02-22T12:46:15.712Z,110
2017-02-22T12:56:15.745Z,70
2017-02-22T13:06:15.709Z,75
2017-02-22T13:16:15.737Z,85
2017-02-22T13:26:15.699Z,100
2017-02-22T13:36:15.752Z,65
2017-02-22T13:46:15.693Z,80
2017-02-22T13:56:15.727Z,80
2017-02-22T14:06:15.694Z,55
2017-02-22T14:16:15.730Z,45
2017-02-22T14:26:15.754Z,15
2017-02-22T14:36:15.725Z,15
2017-02-22T14:46:15.758Z,25
2017-02-22T14:56:15.690Z,30
2017-02-22T15:06:15.775Z,30
2017-02-22T15:16:16.013Z,35
2017-02-22T15:26:15.784Z,25
2017-02-22T15:36:15.744Z,20
2017-02-22T15:46:15.787Z,20
2017-02-22T15:56:15.749Z,20
2017-02-22T16:06:15.836Z,15
2017-02-22T16:16:15.759Z,15
2017-02-22T16:26:15.690Z,10
2017-02-22T16:36:15.735Z,5
2017-02-22T16:46:15.734Z,5
2017-02-22T16:56:15.715Z,0
2017-02-22T17:06:15.651Z,0
2017-02-22T17:16:15.680Z,0
2017-02-22T17:26:15.670Z,0
2017-02-22T17:36:15.711Z,0
2017-02-22T17:46:15.752Z,0
2017-02-22T17:56:15.795Z,0
2017-02-22T18:06:15.721Z,0
2017-02-22T18:16:20.202Z,0
2017-02-22T18:36:15.711Z,0
2017-02-22T18:46:15.776Z,0
2017-02-22T19:06:40.775Z,0
2017-02-22T19:16:20.528Z,0
2017-02-22T19:26:32.396Z,0
2017-02-22T19:36:23.055Z,0
2017-02-22T19:56:25.327Z,0
2017-02-22T20:06:20.881Z,0
2017-02-22T20:16:27.802Z,0
2017-02-22T20:26:22.986Z,0
2017-02-22T20:36:32.237Z,0
2017-02-22T20:46:17.017Z,0
2017-02-22T20:56:27.706Z,0
2017-02-22T21:06:26.901Z,0
2017-02-22T21:16:23.983Z,0
2017-02-22T21:26:33.579Z,0
2017-02-22T21:36:16.290Z,0
2017-02-22T21:46:15.794Z,0
2017-02-22T22:06:27.158Z,0
2017-02-22T22:16:24.610Z,0
2017-02-22T22:26:21.849Z,0
2017-02-22T22:36:15.624Z,0
2017-02-22T22:46:15.700Z,0
2017-02-22T22:56:15.674Z,0
2017-02-22T23:06:15.754Z,0
2017-02-22T23:16:15.833Z,0
2017-02-22T23:26:15.758Z,0
2017-02-22T23:36:15.660Z,0
2017-02-22T23:46:15.656Z,0
2017-02-22T23:56:15.727Z,0
